Date,TemperatureHighF,TemperatureAvgF,TemperatureLowF,DewpointHighF,DewpointAvgF,DewpointLowF,HumidityHigh,HumidityAvg,HumidityLow,PressureMaxIn,PressureMinIn,WindSpeedMaxMPH,WindSpeedAvgMPH,GustSpeedMaxMPH,PrecipitationSumIn
2012-1-1,77,70,61,64,61,59,93,75,59,30.23,30.14,7,1,9,0.00
2012-1-2,77,66,56,66,59,44,95,80,58,30.16,30.02,15,2,22,0.03
2012-1-3,55,50,43,46,29,13,75,48,21,30.34,30.14,18,7,31,0.00
2012-1-4,65,52,40,52,38,22,73,59,44,30.37,30.23,18,4,19,0.00
2012-1-5,67,56,47,45,35,17,83,49,15,30.28,30.16,8,2,15,0.00
2012-1-6,70,59,49,58,51,43,89,76,60,30.22,30.12,6,0,9,0.00
2012-1-7,73,64,53,56,54,51,94,74,51,30.18,30.09,6,0,12,0.00
2012-1-8,75,66,56,61,57,54,92,74,54,30.21,30.13,7,1,12,0.00
2012-1-9,77,73,69,64,63,61,78,72,63,30.19,30.08,7,0,12,0.00
2012-1-10,77,70,61,64,61,58,93,75,60,30.09,29.96,5,0,12,0.00
2012-1-11,75,70,63,68,65,60,93,84,75,29.96,29.79,10,1,24,0.00
2012-1-12,77,71,65,67,65,62,97,83,70,29.97,29.83,7,1,14,0.00
2012-1-13,70,67,62,64,61,57,89,81,72,30.13,29.96,7,0,16,0.00
2012-1-14,62,57,52,55,45,38,76,64,54,30.33,30.13,9,3,19,0.00
2012-1-15,68,56,46,49,39,28,67,54,31,30.41,30.31,10,2,18,0.00
2012-1-16,70,66,57,59,54,44,72,65,58,30.40,30.30,12,3,20,0.00
2012-1-17,76,71,64,64,61,55,84,70,61,30.29,30.15,7,1,13,0.00
2012-1-18,78,69,61,66,62,58,92,79,60,30.14,29.97,7,0,16,0.00
2012-1-19,73,67,60,61,58,53,93,73,53,30.12,29.97,10,2,18,0.00
2012-1-20,74,66,56,60,56,53,93,72,53,30.18,30.09,7,0,14,0.00
2012-1-21,76,71,67,63,60,57,84,70,59,30.14,30.03,13,2,17,0.00
2012-1-22,78,70,60,67,61,57,91,75,58,30.11,30.03,7,1,14,0.00
2012-1-23,78,74,71,68,66,65,89,78,68,30.11,30.05,7,0,15,0.01
2012-1-24,78,74,70,69,67,65,89,79,71,30.15,30.06,6,0,15,0.08
2012-1-25,77,74,70,69,67,65,91,80,72,30.16,30.07,8,1,18,0.08
2012-1-26,78,75,72,69,68,65,87,79,71,30.10,29.98,17,3,22,0.02
2012-1-27,82,76,72,72,69,67,88,80,63,30.04,29.92,13,2,22,0.00
2012-1-28,79,72,68,69,67,65,91,83,71,30.13,30.03,4,0,9,0.00
2012-1-29,75,71,68,67,64,61,85,78,70,30.22,30.09,12,2,16,0.00
2012-1-30,75,72,70,62,60,59,73,68,62,30.28,30.18,11,2,22,0.00
2012-1-31,74,72,69,65,62,59,78,72,68,30.29,30.20,11,2,20,0.00
2012-2-1,78,74,71,68,66,64,83,77,70,30.22,30.12,9,2,15,0.00
2012-2-2,77,72,68,69,67,66,95,85,75,30.14,30.05,8,1,12,0.05
2012-2-3,76,73,69,68,66,64,94,79,72,30.17,30.08,15,4,25,0.02
2012-2-4,76,73,72,69,68,66,87,82,78,30.14,30.04,14,3,20,0.02
2012-2-5,79,75,73,70,69,67,86,82,75,30.04,29.96,7,1,14,0.00
2012-2-6,75,72,68,72,69,66,96,90,83,30.05,29.96,8,1,20,1.32
2012-2-7,79,74,71,73,70,69,95,89,82,30.00,29.90,4,0,17,0.15
2012-2-8,78,71,68,69,67,64,97,88,73,30.03,29.95,10,2,15,0.00
2012-2-9,75,71,66,68,67,63,96,87,77,30.08,29.98,8,1,16,0.63
2012-2-10,79,74,71,74,70,68,94,90,83,30.04,29.87,8,1,17,0.19
2012-2-11,70,66,56,68,60,49,97,82,63,30.04,29.84,20,5,28,0.28
2012-2-12,58,52,46,47,41,33,80,66,55,30.23,30.05,20,5,26,0.00
2012-2-13,68,59,47,55,48,42,92,69,52,30.21,30.11,11,2,18,0.00
2012-2-14,74,69,58,62,58,54,89,70,62,30.12,30.05,10,1,18,0.00
2012-2-15,78,72,63,66,64,60,90,74,62,30.19,30.09,7,1,15,0.00
2012-2-16,78,74,72,68,66,64,84,76,68,30.18,30.05,12,3,18,0.00
2012-2-17,79,72,66,69,67,64,96,83,69,30.07,29.97,9,2,16,0.00
2012-2-18,79,73,66,69,67,64,95,82,71,30.00,29.88,9,2,18,0.00
2012-2-19,85,76,69,72,70,67,95,80,61,29.94,29.82,17,5,28,0.00
2012-2-20,72,67,61,64,59,56,89,76,60,30.14,29.92,9,3,21,0.00
2012-2-21,75,70,67,60,58,56,71,65,57,30.19,30.10,6,1,13,0.00
2012-2-22,77,71,62,66,63,59,91,76,64,30.11,29.93,8,1,18,0.00
2012-2-23,84,73,64,72,67,62,96,82,60,29.98,29.89,6,1,15,0.00
2012-2-24,82,75,68,73,70,66,97,86,72,30.02,29.93,15,2,22,0.01
2012-2-25,79,72,70,73,68,64,98,86,76,30.16,29.99,12,1,24,0.03
2012-2-26,75,72,69,69,67,64,88,83,80,30.23,30.15,13,3,21,0.00
2012-2-27,81,76,74,72,70,68,87,81,74,30.25,30.18,10,2,20,0.00
2012-2-28,80,76,74,71,70,68,86,80,73,30.22,30.15,12,2,15,0.00
2012-2-29,80,76,73,71,70,68,89,81,73,30.19,30.08,8,1,17,0.05
2012-3-1,81,76,72,71,70,68,90,81,72,30.11,29.99,11,3,24,0.00
2012-3-2,81,75,68,71,69,67,97,82,69,30.04,29.95,16,3,22,0.00
2012-3-3,82,78,75,73,71,69,89,81,68,29.97,29.84,18,6,26,0.00
2012-3-4,82,70,58,73,59,35,92,71,41,30.16,29.81,21,7,34,0.26
2012-3-5,72,63,53,58,48,35,77,59,44,30.31,30.16,11,2,19,0.00
2012-3-6,76,70,60,63,57,50,81,64,52,30.35,30.24,18,5,28,0.00
2012-3-7,75,72,70,67,64,59,83,76,68,30.32,30.23,16,7,26,0.00
2012-3-8,76,72,69,70,68,67,94,87,80,30.24,30.13,14,4,24,1.59
2012-3-9,80,76,74,71,69,67,87,80,73,30.17,30.07,6,1,18,0.00
2012-3-10,80,74,69,70,68,67,94,82,71,30.16,30.05,7,1,15,0.00
2012-3-11,79,75,69,69,67,65,91,77,68,30.24,30.13,16,4,25,0.96
2012-3-12,76,73,71,66,63,60,85,72,60,30.26,30.16,15,3,21,0.01
2012-3-13,78,74,71,64,62,60,75,67,60,30.22,30.13,12,1,16,0.00
2012-3-14,78,74,72,67,64,62,83,71,64,30.19,30.09,13,2,21,0.00
2012-3-15,78,74,70,69,67,66,88,78,70,30.18,30.08,11,3,21,0.05
2012-3-16,78,75,72,68,65,61,84,74,59,30.19,30.09,11,2,18,0.00
2012-3-17,78,74,67,65,64,62,84,71,63,30.19,30.10,7,1,16,0.00
2012-3-18,79,74,71,68,65,62,81,72,66,30.20,30.11,10,2,18,0.00
2012-3-19,78,74,70,66,64,59,88,70,55,30.15,30.04,9,2,15,0.05
2012-3-20,79,75,73,67,65,64,80,72,63,30.08,30.00,11,2,20,0.00
2012-3-21,80,76,73,69,68,67,86,76,67,30.12,30.02,9,3,20,0.02
2012-3-22,80,77,74,69,68,66,83,75,65,30.14,30.05,8,2,18,0.00
2012-3-23,80,76,72,67,66,64,77,70,60,30.10,30.01,7,1,15,0.00
2012-3-24,80,75,68,67,66,64,92,73,63,30.03,29.92,10,2,17,0.00
2012-3-25,83,76,69,69,66,64,90,73,54,29.95,29.78,18,3,29,0.00
2012-3-26,81,72,64,63,59,54,87,65,39,29.97,29.86,7,1,18,0.00
2012-3-27,79,74,69,67,64,60,87,70,61,30.14,29.95,10,2,18,0.12
2012-3-28,78,75,72,67,64,59,78,69,61,30.14,30.05,11,2,19,0.00
2012-3-29,78,74,71,64,63,61,75,68,60,30.07,29.96,8,1,13,0.00
2012-3-30,79,73,64,65,62,60,91,70,59,30.06,29.96,10,1,16,0.00
2012-3-31,82,74,68,72,68,63,95,81,69,30.00,29.86,17,2,32,0.90
2012-4-1,84,75,68,70,68,64,97,81,51,29.93,29.83,6,1,17,0.01
2012-4-2,84,76,67,72,68,65,94,78,57,29.90,29.83,8,1,13,0.00
2012-4-3,84,77,67,72,69,65,93,77,63,29.95,29.87,8,2,14,0.00
2012-4-4,82,77,70,72,70,68,95,80,65,29.96,29.81,14,3,23,0.00
2012-4-5,88,81,75,70,68,66,80,66,48,29.84,29.72,13,3,25,0.00
2012-4-6,83,76,73,74,72,69,94,86,67,29.82,29.72,12,3,27,0.25
2012-4-7,79,76,72,67,64,61,73,68,60,30.08,29.97,12,3,25,0.00
2012-4-8,76,73,70,63,60,57,73,63,56,30.13,30.06,9,2,16,0.00
2012-4-9,79,73,66,64,61,58,84,66,56,30.07,29.98,8,1,14,0.00
2012-4-10,80,74,65,64,61,58,89,66,48,30.06,29.97,7,1,14,0.00
2012-4-11,83,74,66,67,63,61,90,70,47,30.04,29.93,8,1,16,0.00
2012-4-12,84,74,66,69,64,60,86,71,44,30.02,29.93,8,1,15,0.00
2012-4-13,79,74,68,69,68,64,91,81,70,30.08,29.98,11,2,23,0.69
2012-4-14,77,74,70,68,65,61,91,74,62,30.20,30.05,16,4,23,0.48
2012-4-15,79,75,72,65,62,59,71,64,54,30.19,30.12,15,3,20,0.00
2012-4-16,80,76,74,65,61,56,69,59,48,30.18,30.09,13,2,21,0.00
2012-4-17,80,76,73,65,63,59,72,63,50,30.15,30.04,13,2,17,0.00
2012-4-18,80,76,73,68,66,64,79,71,64,30.08,29.95,10,2,17,0.00
2012-4-19,80,77,74,70,68,68,81,76,70,29.98,29.88,10,3,20,0.00
2012-4-20,83,76,67,72,69,65,95,80,65,29.92,29.81,14,3,23,1.48
2012-4-21,76,72,68,71,68,66,96,88,76,29.90,29.66,18,4,26,0.47
2012-4-22,82,74,66,72,67,62,96,79,53,29.71,29.53,18,6,29,0.41
2012-4-23,80,70,62,64,55,49,86,62,40,29.90,29.71,20,6,29,0.00
2012-4-24,73,65,56,52,46,38,85,53,29,30.01,29.88,14,2,21,0.00
2012-4-25,76,68,57,58,53,46,77,60,44,30.10,30.00,8,0,15,0.00
2012-4-26,78,72,62,64,61,58,90,70,59,30.13,30.05,8,1,15,0.00
2012-4-27,80,75,67,71,66,62,86,75,64,30.10,30.03,6,1,15,0.00
2012-4-28,78,75,70,73,71,68,96,87,73,30.06,30.00,8,1,18,0.35
2012-4-29,76,73,70,72,70,69,97,91,78,30.05,29.98,15,4,24,1.46
2012-4-30,74,73,71,71,70,68,94,89,82,30.03,29.96,18,5,25,0.05
2012-5-1,80,76,73,73,71,68,91,84,76,30.05,29.98,13,3,22,0.05
2012-5-2,81,78,75,72,71,70,84,80,74,30.08,29.98,16,2,20,0.03
2012-5-3,81,78,75,73,71,69,83,79,73,30.07,30.01,9,2,18,0.07
2012-5-4,81,78,74,71,69,68,84,75,66,30.08,29.98,9,2,12,0.02
2012-5-5,82,78,74,71,70,68,84,76,66,30.00,29.93,8,2,14,0.00
2012-5-6,84,78,71,73,71,69,95,80,66,29.97,29.86,7,1,17,0.00
2012-5-7,83,78,72,73,71,68,94,80,67,29.91,29.83,9,2,20,0.00
2012-5-8,83,74,70,73,70,67,95,87,70,29.90,29.84,10,1,18,1.18
2012-5-9,84,76,70,75,71,69,97,87,68,29.89,29.78,10,1,23,0.60
2012-5-10,87,78,72,74,73,70,95,84,60,29.86,29.76,13,1,17,2.46
2012-5-11,83,77,70,75,72,69,98,86,75,30.06,29.85,12,3,18,0.01
2012-5-12,81,78,77,72,70,69,83,76,68,30.14,30.03,13,5,20,0.00
2012-5-13,81,78,73,72,71,69,91,80,74,30.10,29.99,7,2,19,0.55
2012-5-14,84,79,75,75,73,71,94,84,73,30.03,29.92,8,1,16,0.31
2012-5-15,84,78,73,76,74,70,96,87,74,30.00,29.91,8,1,19,0.23
2012-5-16,81,76,71,74,72,70,97,89,76,30.00,29.90,0,0,6,0.02
2012-5-17,81,76,68,74,72,67,97,87,74,29.95,29.84,9,1,25,0.70
2012-5-18,84,75,70,73,70,66,96,86,63,29.91,29.84,7,1,18,1.24
2012-5-19,83,74,70,74,71,69,97,91,75,29.95,29.86,2,0,12,1.00
2012-5-20,82,77,71,74,72,69,97,85,72,29.94,29.87,6,1,13,0.05
2012-5-21,83,78,71,74,72,68,93,82,70,29.96,29.89,6,1,14,0.02
2012-5-22,82,76,72,74,72,70,96,87,72,29.95,29.89,8,1,18,0.47
2012-5-23,84,78,75,75,73,71,91,85,71,29.90,29.83,13,2,20,0.30
2012-5-24,80,76,73,75,72,70,96,89,80,29.86,29.79,6,0,17,0.65
2012-5-25,85,78,71,76,73,70,97,85,70,29.99,29.86,8,1,14,0.00
2012-5-26,84,80,75,76,74,73,95,85,70,30.01,29.93,11,1,13,0.00
2012-5-27,86,80,74,76,73,70,96,83,60,29.93,29.84,17,3,22,0.00
2012-5-28,85,78,74,76,73,71,93,86,76,29.95,29.88,6,1,21,0.03
2012-5-29,85,80,75,78,75,70,95,84,72,29.95,29.87,13,2,22,0.02
2012-5-30,88,81,74,77,74,72,96,81,62,29.92,29.80,12,2,20,0.00
2012-5-31,84,79,76,76,74,70,93,84,68,29.93,29.84,7,1,17,0.04
2012-6-1,81,76,73,77,74,72,97,94,86,29.97,29.85,17,1,18,0.68
2012-6-2,90,81,75,78,75,71,96,83,64,29.95,29.86,11,1,15,0.05
2012-6-3,88,80,73,74,72,69,95,77,57,30.01,29.91,11,1,13,0.01
2012-6-4,91,84,76,78,74,70,92,73,53,29.97,29.84,11,2,21,0.01
2012-6-5,89,82,77,77,75,71,94,81,57,29.87,29.79,14,2,21,0.01
2012-6-6,85,82,78,78,76,68,93,83,67,29.93,29.85,6,0,25,0.01
2012-6-7,91,84,81,79,77,72,92,82,58,29.95,29.88,8,1,18,0.18
2012-6-8,88,80,74,79,76,71,94,87,73,29.95,29.88,7,0,20,0.23
2012-6-9,85,80,75,78,76,74,96,88,78,30.00,29.91,6,1,14,0.03
2012-6-10,86,83,78,79,77,75,94,84,75,30.09,29.96,12,1,15,0.00
2012-6-11,84,82,79,76,73,70,84,75,64,30.08,30.01,13,2,16,0.00
2012-6-12,84,80,77,71,69,67,77,69,59,30.05,29.94,6,1,13,0.00
2012-6-13,86,81,73,73,72,70,93,75,60,29.97,29.87,8,1,15,0.00
2012-6-14,90,81,74,78,75,71,92,82,61,29.96,29.86,7,1,29,0.00
2012-6-15,86,79,73,78,74,69,95,84,72,30.00,29.88,7,1,39,0.06
2012-6-16,85,81,76,74,72,69,87,73,65,30.00,29.90,12,4,20,0.00
2012-6-17,84,81,78,71,69,65,74,67,61,30.01,29.91,8,2,18,0.00
2012-6-18,84,81,78,72,68,66,79,67,58,30.00,29.91,12,3,18,0.01
2012-6-19,84,81,78,75,72,69,82,76,71,30.01,29.94,14,5,23,0.00
2012-6-20,82,77,74,75,74,71,95,91,78,29.99,29.91,11,1,25,1.67
2012-6-21,85,80,75,77,75,73,94,84,75,29.97,29.85,8,1,15,0.01
2012-6-22,83,78,74,77,75,72,96,90,78,29.92,29.81,8,1,18,0.34
2012-6-23,83,78,73,78,75,71,97,91,81,29.98,29.83,5,0,24,0.50
2012-6-24,78,76,74,76,74,71,96,94,90,29.96,29.90,9,1,26,2.28
2012-6-25,88,84,82,78,77,75,88,80,66,29.82,29.74,25,6,26,0.00
2012-6-26,89,84,77,78,75,72,93,76,59,29.76,29.69,17,8,33,0.19
2012-6-27,90,84,78,79,77,73,88,80,62,29.96,29.74,18,5,31,0.23
2012-6-28,86,81,75,76,73,70,89,79,73,30.04,29.96,9,1,13,0.00
2012-6-29,87,82,76,76,74,72,88,75,65,30.03,29.92,9,1,12,0.00
2012-6-30,88,83,77,78,75,71,92,78,63,29.98,29.90,10,2,18,0.00
2012-7-1,88,83,78,79,76,74,92,79,67,30.06,29.95,9,1,16,0.00
2012-7-2,89,83,78,78,76,73,93,79,61,30.09,29.97,15,2,17,0.00
2012-7-3,88,83,77,78,76,74,92,80,69,30.05,29.97,5,1,18,0.00
2012-7-4,86,83,79,78,77,75,91,82,73,30.07,29.98,6,0,13,0.06
2012-7-5,88,82,76,78,75,73,92,79,63,30.03,29.95,7,1,16,0.00
2012-7-6,88,83,77,78,76,73,94,79,71,30.03,29.97,9,1,16,0.05
2012-7-7,87,84,79,78,76,74,87,78,68,30.06,29.99,11,1,14,0.00
2012-7-8,88,83,78,79,77,75,95,82,70,30.05,29.99,9,2,15,0.17
2012-7-9,87,82,77,78,76,73,95,82,71,30.03,29.94,5,0,13,0.00
2012-7-10,87,82,76,78,76,73,95,82,70,30.01,29.92,11,1,17,0.61
2012-7-11,82,77,73,75,74,72,97,89,75,30.05,29.93,6,0,23,1.63
2012-7-12,86,81,76,77,74,71,89,81,65,30.01,29.93,10,0,20,0.00
2012-7-13,80,80,77,76,75,74,91,86,83,29.99,29.96,0,0,6,0.30
2012-7-14,86,83,79,77,75,72,88,79,73,30.05,29.98,8,2,16,0.07
2012-7-15,85,79,74,76,74,72,96,84,66,30.09,30.00,11,1,16,1.32
2012-7-16,83,76,72,77,74,70,97,92,80,30.08,29.97,7,1,14,0.58
2012-7-17,86,78,73,78,75,72,97,90,75,30.02,29.95,8,0,17,0.27
2012-7-18,89,82,74,79,76,72,96,84,64,30.10,29.98,13,2,20,0.00
2012-7-19,88,84,78,78,77,76,95,81,70,30.16,30.07,10,1,14,0.00
2012-7-20,88,84,81,79,77,76,86,80,73,30.11,30.01,11,2,16,0.00
2012-7-21,88,85,82,80,78,77,87,82,76,30.08,30.01,12,2,18,0.00
2012-7-22,86,80,73,79,76,71,97,89,79,30.10,30.00,12,2,28,1.86
2012-7-23,86,81,74,79,76,71,94,86,72,30.15,30.07,7,1,19,0.40
2012-7-24,88,84,80,80,78,70,92,83,72,30.12,30.00,10,2,17,0.00
2012-7-25,90,84,78,79,77,75,93,80,65,30.03,29.96,9,1,15,0.00
2012-7-26,89,84,77,79,76,74,93,79,66,30.03,29.95,6,1,14,0.00
2012-7-27,88,84,78,79,77,75,93,79,70,30.07,29.97,11,1,14,0.00
2012-7-28,89,83,76,78,76,74,94,79,64,30.08,30.01,11,1,16,0.00
2012-7-29,89,84,76,77,75,74,94,76,63,30.07,29.97,9,1,16,0.00
2012-7-30,90,83,78,77,74,70,90,76,64,30.03,29.95,7,1,18,0.00
2012-7-31,89,83,75,77,74,70,88,76,64,30.03,29.94,11,1,17,0.00
2012-8-1,90,83,78,78,76,72,91,78,64,30.00,29.92,11,1,24,0.00
2012-8-2,90,84,78,79,77,76,93,80,68,29.97,29.90,7,1,15,0.00
2012-8-3,88,82,77,79,76,73,92,84,71,29.98,29.89,6,1,20,0.07
2012-8-4,87,82,76,78,77,75,96,84,71,30.03,29.91,9,1,18,0.00
2012-8-5,88,85,81,79,77,74,86,79,72,30.06,29.98,10,2,16,0.00
2012-8-6,85,81,76,79,76,73,95,87,80,30.04,29.96,8,1,24,0.69
2012-8-7,89,84,76,80,77,75,96,81,69,30.01,29.93,13,2,18,0.03
2012-8-8,89,85,82,80,78,76,86,79,70,30.01,29.94,8,2,14,0.00
2012-8-9,89,85,82,80,78,75,85,79,73,30.00,29.90,9,2,19,0.00
2012-8-10,84,81,75,78,75,71,94,83,76,29.97,29.90,8,1,26,0.60
2012-8-11,87,80,75,78,75,72,95,84,69,30.02,29.91,9,1,20,0.09
2012-8-12,89,80,76,78,76,74,96,87,66,30.03,29.95,11,1,19,0.10
2012-8-13,89,83,76,80,77,75,97,85,71,30.04,29.96,7,0,11,0.00
2012-8-14,90,84,78,79,77,76,95,80,67,30.02,29.93,7,1,13,0.02
2012-8-15,90,85,79,79,78,76,94,80,66,30.01,29.95,7,0,16,0.00
2012-8-16,89,84,79,79,78,76,93,83,68,30.05,29.96,7,1,13,0.00
2012-8-17,90,82,75,78,75,72,94,82,62,30.02,29.91,7,1,21,0.07
2012-8-18,90,80,74,79,75,73,96,88,60,29.98,29.89,6,0,19,0.76
2012-8-19,90,82,77,79,77,76,96,85,68,29.98,29.89,13,2,22,0.45
2012-8-20,89,83,77,79,77,74,96,83,67,29.99,29.89,11,2,21,0.01
2012-8-21,90,83,79,78,75,72,91,77,61,30.06,29.96,8,1,18,0.00
2012-8-22,90,82,75,80,75,71,92,81,70,30.06,29.99,6,0,17,0.00
2012-8-23,89,83,76,78,76,72,93,79,69,30.05,29.98,6,1,15,0.00
2012-8-24,88,83,74,78,75,70,88,77,70,29.99,29.89,10,3,21,0.53
2012-8-25,85,82,74,79,76,70,91,84,79,29.93,29.84,12,2,21,0.09
2012-8-26,84,80,76,79,76,74,96,90,80,29.85,29.68,19,5,31,3.69
2012-8-27,85,81,77,80,78,74,95,90,85,29.92,29.77,23,6,35,1.72
2012-8-28,87,83,78,80,78,75,94,86,76,29.98,29.89,13,3,24,0.06
2012-8-29,87,84,81,79,77,76,89,82,73,29.98,29.89,12,4,20,0.00
2012-8-30,88,83,78,79,77,76,94,83,72,30.07,29.93,10,1,13,0.06
2012-8-31,88,83,80,78,77,76,90,82,70,30.12,30.03,6,1,12,0.00
2012-9-1,88,83,78,79,77,75,94,82,71,30.08,29.99,11,2,20,0.00
2012-9-2,87,82,76,76,74,72,93,76,64,30.02,29.94,8,1,16,0.09
2012-9-3,86,82,77,77,74,72,89,78,68,30.02,29.94,8,1,15,0.00
2012-9-4,87,81,76,76,74,66,91,78,63,30.01,29.91,9,1,20,0.00
2012-9-5,88,79,73,78,73,69,94,83,66,29.99,29.89,12,2,22,0.43
2012-9-6,87,78,74,78,74,68,96,87,71,30.01,29.93,9,1,29,0.10
2012-9-7,87,80,74,78,74,70,94,82,69,29.98,29.89,9,1,15,0.02
2012-9-8,89,82,76,78,75,71,93,79,55,29.95,29.86,9,1,18,0.00
2012-9-9,93,85,78,76,74,71,88,73,49,29.95,29.85,13,2,19,0.00
2012-9-10,88,83,78,78,76,74,92,81,68,29.97,29.90,13,2,21,0.01
2012-9-11,88,82,77,79,76,74,95,84,73,30.03,29.94,12,2,20,0.15
2012-9-12,88,83,78,77,75,72,94,77,68,30.03,29.95,11,4,25,0.85
2012-9-13,84,82,76,76,75,73,92,80,74,30.04,29.94,11,2,19,0.12
2012-9-14,86,81,75,78,75,73,95,81,71,29.99,29.92,9,1,15,0.30
2012-9-15,85,80,76,78,75,73,97,87,74,30.02,29.94,10,1,16,0.34
2012-9-16,83,80,77,76,74,72,92,82,76,30.01,29.93,5,0,15,0.22
2012-9-17,85,81,75,78,75,71,93,82,73,29.99,29.89,15,1,19,0.06
2012-9-18,88,82,76,80,76,74,94,83,69,29.96,29.86,10,1,22,0.42
2012-9-19,87,81,76,78,76,74,96,85,69,30.02,29.88,6,1,12,0.01
2012-9-20,87,82,76,78,76,73,93,81,71,30.01,29.89,7,1,13,0.00
2012-9-21,86,80,74,76,74,72,95,84,65,29.95,29.87,4,0,14,0.26
2012-9-22,81,77,73,76,74,72,97,93,82,29.99,29.88,5,0,14,1.02
2012-9-23,83,78,74,77,75,73,98,90,77,30.02,29.95,3,0,11,0.03
2012-9-24,85,79,75,76,74,71,96,86,73,30.03,29.95,5,0,17,0.09
2012-9-25,85,78,74,76,73,71,90,84,72,30.04,29.95,2,0,10,0.09
2012-9-26,86,82,80,77,75,73,84,79,74,30.05,29.97,5,0,11,0.00
2012-9-27,87,82,77,78,76,74,92,81,72,30.05,29.95,8,1,14,0.01
2012-9-28,86,80,76,78,76,74,95,87,70,29.99,29.89,6,1,13,0.05
2012-9-29,87,81,75,78,75,71,94,83,70,29.94,29.81,7,1,13,0.00
2012-9-30,87,81,75,78,76,74,96,84,72,29.86,29.76,6,1,17,0.00
2012-10-1,86,79,75,78,75,73,97,88,73,29.84,29.74,11,1,21,1.85
2012-10-2,85,78,74,78,75,72,98,92,80,30.02,29.83,11,2,23,0.94
2012-10-3,88,82,75,81,78,74,97,88,76,30.13,30.01,9,1,14,0.02
2012-10-4,88,83,78,80,78,76,95,84,76,30.12,30.01,6,1,16,0.16
2012-10-5,87,84,81,78,77,76,87,81,72,30.05,29.90,6,1,13,0.00
2012-10-6,86,82,77,79,76,74,93,83,70,29.95,29.81,7,1,12,0.06
2012-10-7,85,79,75,78,75,71,95,87,75,29.94,29.83,6,1,15,0.01
2012-10-8,85,81,78,79,76,75,93,86,76,29.98,29.88,6,0,9,0.09
2012-10-9,87,82,76,78,76,74,96,84,66,29.98,29.91,6,1,14,0.00
2012-10-10,85,80,76,78,75,72,96,85,74,30.02,29.93,7,1,21,0.07
2012-10-11,84,80,74,71,70,68,88,72,62,30.08,29.99,9,2,21,0.00
2012-10-12,83,80,78,69,67,66,70,65,58,30.08,29.99,19,3,23,0.00
2012-10-13,84,81,76,73,69,67,87,69,59,30.06,29.98,16,4,24,0.00
2012-10-14,84,81,80,76,74,69,85,79,69,30.02,29.89,13,5,24,0.00
2012-10-15,86,82,78,76,74,73,86,78,69,29.89,29.74,8,2,17,0.00
2012-10-16,86,80,74,75,72,71,93,80,63,29.80,29.72,8,1,16,0.00
2012-10-17,85,78,71,75,73,69,96,86,71,29.86,29.76,9,1,18,0.79
2012-10-18,87,81,74,77,75,72,94,84,70,29.83,29.76,8,0,17,0.10
2012-10-19,86,80,76,78,75,73,97,87,68,29.85,29.76,7,0,13,0.01
2012-10-20,83,79,74,75,73,72,96,84,71,29.88,29.79,9,1,18,0.00
2012-10-21,83,78,72,72,66,63,90,69,54,29.96,29.85,8,1,16,0.00
2012-10-22,84,80,76,70,67,63,73,66,58,29.97,29.90,11,3,20,0.00
2012-10-23,83,80,74,72,69,63,87,70,59,29.94,29.87,13,4,22,0.00
2012-10-24,84,80,75,74,72,71,91,78,64,29.91,29.80,23,3,23,0.40
2012-10-25,81,79,73,74,72,69,92,81,74,29.79,29.60,22,4,32,0.26
2012-10-26,80,75,70,73,69,66,95,83,66,29.59,29.41,24,8,33,0.69
2012-10-27,80,74,68,68,65,63,89,75,58,29.64,29.42,15,8,36,0.00
2012-10-28,80,72,68,66,63,58,93,75,54,29.73,29.61,16,5,29,0.00
2012-10-29,72,65,59,57,50,40,79,60,34,29.81,29.70,22,5,26,0.00
2012-10-30,72,62,54,52,48,39,81,61,44,29.94,29.78,15,3,24,0.00
2012-10-31,73,63,56,56,53,47,95,71,48,30.02,29.93,7,1,15,0.00
2012-11-1,79,68,57,64,60,56,95,76,52,30.02,29.91,8,1,18,0.00
2012-11-2,79,70,64,65,59,50,95,70,38,30.04,29.95,9,1,13,0.00
2012-11-3,80,69,60,64,58,54,90,70,42,30.08,29.99,5,1,11,0.00
2012-11-4,80,72,64,66,64,62,94,78,57,30.06,29.95,4,0,9,0.00
2012-11-5,77,71,66,65,62,57,92,74,51,29.96,29.87,10,0,13,0.00
2012-11-6,82,72,64,66,62,53,93,72,38,29.89,29.76,11,1,20,0.00
2012-11-7,70,66,60,65,57,50,92,74,58,29.93,29.78,16,3,26,0.00
2012-11-8,68,61,56,52,46,39,79,60,35,30.05,29.91,13,3,22,0.00
2012-11-9,75,67,57,58,54,52,85,65,46,30.14,30.03,11,2,18,0.00
2012-11-10,75,72,70,60,56,54,65,57,53,30.19,30.10,10,2,23,0.00
2012-11-11,79,76,73,68,62,58,79,63,49,30.17,30.10,14,5,22,0.03
2012-11-12,80,77,74,70,68,65,87,76,67,30.13,30.05,15,3,21,0.05
2012-11-13,80,77,74,68,67,66,79,72,63,30.08,29.98,10,1,15,0.00
2012-11-14,80,76,70,69,67,65,88,74,68,30.05,29.98,12,2,16,0.00
2012-11-15,79,73,65,68,65,63,93,78,58,30.03,29.96,6,1,12,0.23
2012-11-16,78,70,65,69,66,63,96,88,72,30.04,29.95,7,0,13,0.14
2012-11-17,78,72,66,68,66,64,97,82,69,30.03,29.95,10,1,16,0.34
2012-11-18,79,72,68,69,66,64,92,83,66,30.04,29.96,9,2,20,0.01
2012-11-19,72,66,60,64,60,58,91,83,68,30.06,29.95,11,2,15,0.00
2012-11-20,74,65,60,66,61,58,96,87,75,29.97,29.85,8,2,16,0.00
2012-11-21,76,66,60,63,59,55,93,78,54,29.96,29.85,10,2,20,0.00
2012-11-22,74,64,57,58,53,50,81,68,52,30.04,29.93,13,4,21,0.00
2012-11-23,76,65,56,61,56,51,85,73,55,30.07,29.98,9,2,19,0.00
2012-11-24,73,64,54,56,53,50,87,71,46,30.05,29.94,11,1,18,0.00
2012-11-25,77,65,55,60,56,53,93,76,52,30.06,29.98,4,0,8,0.00
2012-11-26,78,70,60,65,62,56,90,74,60,30.11,30.04,10,0,12,0.00
2012-11-27,79,74,70,67,65,63,87,73,63,30.11,30.01,6,0,16,0.00
2012-11-28,78,71,66,67,65,63,93,83,60,30.10,30.01,6,1,17,0.00
2012-11-29,77,72,63,66,64,61,94,77,65,30.13,30.06,11,2,20,0.00
2012-11-30,75,73,72,64,63,61,74,69,64,30.14,30.05,12,4,21,0.00
2012-12-1,78,75,73,66,64,63,75,70,62,30.10,30.03,11,4,21,0.00
2012-12-2,78,75,73,67,66,64,76,73,68,30.15,30.06,16,5,21,0.00
2012-12-3,77,74,72,66,62,53,78,66,51,30.16,30.07,8,2,19,0.00
2012-12-4,77,74,72,64,61,54,74,65,52,30.14,30.07,12,3,19,0.00
2012-12-5,78,75,71,68,64,62,81,70,59,30.06,29.93,9,2,13,0.00
2012-12-6,78,74,71,70,67,66,92,80,71,29.92,29.82,6,1,12,0.35
2012-12-7,79,75,68,70,68,66,95,82,72,29.90,29.82,6,1,13,0.09
2012-12-8,80,76,73,73,71,68,89,83,77,29.95,29.87,8,0,14,0.00
2012-12-9,82,77,71,75,73,69,96,88,79,30.00,29.90,7,0,13,0.00
2012-12-10,82,78,72,76,74,71,97,90,81,29.94,29.83,14,2,20,0.00
2012-12-11,86,78,71,77,74,70,95,88,70,29.96,29.83,11,2,21,0.01
2012-12-12,81,78,74,74,73,72,93,86,75,30.00,29.92,10,1,21,0.00
2012-12-13,77,72,66,74,69,64,97,91,82,30.00,29.93,8,2,17,0.07
2012-12-14,77,70,63,68,65,61,96,83,58,30.04,29.96,8,2,20,0.13
2012-12-15,77,75,73,67,66,64,79,74,67,30.01,29.93,8,2,16,0.00
2012-12-16,79,75,72,70,68,66,85,79,70,29.96,29.86,13,1,15,0.00
2012-12-17,82,74,65,69,67,64,96,81,58,29.89,29.79,8,0,14,0.00
2012-12-18,82,74,68,70,68,67,97,82,60,29.92,29.81,9,1,18,0.01
2012-12-19,80,72,62,67,63,57,89,75,58,30.00,29.91,5,0,11,0.00
2012-12-20,80,75,70,68,66,64,88,75,63,30.00,29.88,8,1,20,0.00
2012-12-21,71,64,53,68,52,38,91,67,38,30.07,29.86,23,4,32,0.00
2012-12-22,63,54,45,42,33,25,72,46,31,30.16,30.07,12,4,21,0.00
2012-12-23,71,61,50,56,46,33,82,59,48,30.15,30.05,5,0,14,0.00
2012-12-24,76,67,59,61,57,53,87,73,58,30.04,29.91,8,1,16,0.00
2012-12-25,78,70,60,66,62,58,92,78,62,29.95,29.84,9,2,18,0.00
2012-12-26,82,75,64,71,68,60,93,80,65,29.88,29.74,18,3,28,0.10
2012-12-27,71,61,54,58,51,45,91,72,41,29.98,29.88,9,1,16,0.00
2012-12-28,75,68,55,71,63,50,91,85,76,29.99,29.88,6,0,13,0.00
2012-12-29,81,76,64,74,70,55,93,84,69,30.00,29.83,9,2,23,0.00
2012-12-30,67,61,50,57,52,45,85,74,65,30.18,30.01,15,5,22,0.00
2012-12-31,73,70,66,62,59,56,72,69,63,30.21,30.10,10,4,23,0.00
2013-1-1,77,73,68,65,62,59,80,69,62,30.10,29.96,9,1,19,0.00